createdAt,value
2024-02-04T00:07:27.566Z,7.11
2024-02-04T00:17:31.915Z,7.14
2024-02-04T00:27:35.302Z,7.17
2024-02-04T00:37:38.863Z,7.20
2024-02-04T00:47:42.383Z,7.17
2024-02-04T00:57:45.996Z,7.13
2024-02-04T01:07:49.493Z,7.00
2024-02-04T01:17:56.383Z,6.90
2024-02-04T01:28:03.499Z,6.85
2024-02-04T01:38:07.205Z,6.84
2024-02-04T01:48:11.162Z,6.83
2024-02-04T01:58:18.657Z,6.73
2024-02-04T02:08:22.034Z,6.60
2024-02-04T02:18:28.772Z,6.58
2024-02-04T02:28:32.965Z,6.58
2024-02-04T02:38:44.994Z,6.51
2024-02-04T02:48:48.733Z,6.34
2024-02-04T02:58:52.519Z,6.21
2024-02-04T03:08:58.447Z,6.21
2024-02-04T03:19:05.824Z,6.25
2024-02-04T03:29:09.752Z,6.22
2024-02-04T03:39:12.571Z,6.24
2024-02-04T03:49:16.342Z,6.28
2024-02-04T03:59:20.051Z,6.29
2024-02-04T04:09:23.944Z,6.24
2024-02-04T04:19:27.065Z,6.11
2024-02-04T04:29:34.113Z,6.08
2024-02-04T04:39:37.693Z,6.03
2024-02-04T04:49:42.307Z,5.99
2024-02-04T04:59:48.375Z,5.86
2024-02-04T05:09:55.511Z,5.79
2024-02-04T05:19:58.945Z,5.78
2024-02-04T05:30:03.619Z,5.72
2024-02-04T05:40:09.232Z,5.70
2024-02-04T05:50:16.128Z,5.74
2024-02-04T06:00:19.611Z,5.81
2024-02-04T06:10:23.031Z,5.80
2024-02-04T06:20:25.876Z,5.66
2024-02-04T06:30:33.469Z,5.46
2024-02-04T06:40:36.966Z,5.22
2024-02-04T06:51:04.780Z,5.09
2024-02-04T07:01:09.061Z,5.05
2024-02-04T07:11:12.733Z,5.03
2024-02-04T07:21:19.751Z,5.00
2024-02-04T07:31:22.574Z,5.06
2024-02-04T07:41:25.196Z,5.15
2024-02-04T07:51:28.885Z,5.15
2024-02-04T08:01:34.656Z,5.12
2024-02-04T08:11:38.387Z,5.36
2024-02-04T08:21:41.354Z,5.62
2024-02-04T08:31:44.914Z,5.70
2024-02-04T08:41:48.393Z,5.94
2024-02-04T08:51:52.337Z,6.00
2024-02-04T09:01:56.417Z,6.05
2024-02-04T09:12:00.234Z,6.26
2024-02-04T09:22:04.242Z,6.67
2024-02-04T09:32:06.667Z,6.77
2024-02-04T09:42:10.860Z,7.30
2024-02-04T09:52:14.390Z,7.57
2024-02-04T10:02:21.809Z,7.70
2024-02-04T10:12:25.031Z,7.84
2024-02-04T10:22:28.914Z,7.92
2024-02-04T10:32:32.295Z,7.97
2024-02-04T10:42:38.247Z,8.00
2024-02-04T10:52:46.806Z,8.04
2024-02-04T11:02:50.391Z,8.19
2024-02-04T11:12:55.142Z,8.47
2024-02-04T11:23:15.227Z,8.46
2024-02-04T11:33:20.188Z,8.48
2024-02-04T11:43:25.392Z,8.53
2024-02-04T11:53:33.078Z,8.45
2024-02-04T12:03:37.918Z,8.19
2024-02-04T12:13:42.875Z,7.90
2024-02-04T12:23:50.811Z,7.95
2024-02-04T12:33:58.604Z,7.93
2024-02-04T12:44:02.482Z,7.81
2024-02-04T12:54:09.863Z,7.75
2024-02-04T13:04:17.968Z,7.76
2024-02-04T13:14:22.757Z,7.63
2024-02-04T13:24:27.059Z,7.63
2024-02-04T13:34:30.525Z,7.70
2024-02-04T13:54:37.261Z,7.68
2024-02-04T14:04:41.278Z,7.63
2024-02-04T14:14:58.798Z,7.68
2024-02-04T14:25:02.598Z,7.74
2024-02-04T14:35:08.926Z,7.67
2024-02-04T14:45:13.244Z,7.63
2024-02-04T14:55:19.955Z,7.61
2024-02-04T15:05:24.569Z,7.56
2024-02-04T15:15:32.757Z,7.52
2024-02-04T15:25:36.352Z,7.30
2024-02-04T15:35:40.968Z,7.21
2024-02-04T15:45:45.029Z,7.23
2024-02-04T15:55:47.393Z,7.28
2024-02-04T16:06:00.065Z,7.24
2024-02-04T16:16:08.868Z,7.29
2024-02-04T16:26:11.734Z,7.42
2024-02-04T16:36:15.271Z,7.49
2024-02-04T16:46:19.307Z,7.52
2024-02-04T16:56:26.553Z,7.53
2024-02-04T17:06:29.280Z,7.49
2024-02-04T17:16:32.412Z,7.48
2024-02-04T17:26:37.305Z,7.42
2024-02-04T17:36:40.824Z,7.30
2024-02-04T17:46:47.039Z,7.26
2024-02-04T17:56:49.409Z,7.14
2024-02-04T18:06:55.965Z,7.05
2024-02-04T18:17:03.438Z,6.92
2024-02-04T18:27:07.342Z,6.73
2024-02-04T18:37:10.143Z,6.63
2024-02-04T18:47:13.709Z,6.45
2024-02-04T18:57:17.392Z,6.40
2024-02-04T19:17:41.486Z,6.26
2024-02-04T19:27:49.179Z,6.23
2024-02-04T19:37:56.518Z,6.24
2024-02-04T19:48:00.163Z,6.22
2024-02-04T19:58:04.662Z,6.28
2024-02-04T20:08:07.888Z,6.31
2024-02-04T20:18:14.163Z,6.28
2024-02-04T20:28:17.137Z,6.34
2024-02-04T20:38:21.297Z,6.47
2024-02-04T20:48:24.361Z,6.49
2024-02-04T20:58:28.038Z,6.55
2024-02-04T21:08:34.547Z,6.58
2024-02-04T21:18:42.847Z,6.52
2024-02-04T21:28:46.902Z,6.54
2024-02-04T21:38:50.247Z,6.54
2024-02-04T21:48:56.903Z,6.48
2024-02-04T21:59:05.391Z,6.47
2024-02-04T22:09:11.309Z,6.42
2024-02-04T22:19:14.531Z,6.28
2024-02-04T22:29:18.223Z,6.11
2024-02-04T22:39:21.387Z,6.03
2024-02-04T22:49:24.398Z,5.95
2024-02-04T23:09:33.025Z,5.56
2024-02-04T23:19:40.601Z,5.50
2024-02-04T23:29:44.995Z,5.39
2024-02-04T23:39:48.120Z,5.27
2024-02-04T23:49:51.633Z,5.08
2024-02-04T23:59:54.841Z,5.02
